createdAt,value
2018-01-30T00:00:39.388Z,1005.33
2018-01-30T00:01:49.177Z,1005.36
2018-01-30T00:02:59.232Z,1005.35
2018-01-30T00:04:09.279Z,1005.3
2018-01-30T00:05:19.073Z,1005.27
2018-01-30T00:06:29.117Z,1005.34
2018-01-30T00:07:38.908Z,1005.27
2018-01-30T00:08:48.437Z,1005.2
2018-01-30T00:09:58.492Z,1005.21
2018-01-30T00:11:08.560Z,1005.25
2018-01-30T00:12:18.400Z,1005.2
2018-01-30T00:13:28.454Z,1005.22
2018-01-30T00:14:38.242Z,1005.17
2018-01-30T00:15:48.301Z,1005.18
2018-01-30T00:16:58.358Z,1005.2
2018-01-30T00:18:07.949Z,1005.24
2018-01-30T00:19:18.021Z,1005.18
2018-01-30T00:20:28.074Z,1005.22
2018-01-30T00:21:38.139Z,1005.26
2018-01-30T00:22:48.196Z,1005.2
2018-01-30T00:23:58.337Z,1005.27
2018-01-30T00:25:08.390Z,1005.11
2018-01-30T00:26:18.198Z,1005.07
2018-01-30T00:27:28.262Z,1005.06
2018-01-30T00:28:38.404Z,1005.12
2018-01-30T00:29:48.196Z,1005.09
2018-01-30T00:30:58.229Z,1004.99
2018-01-30T00:32:08.287Z,1004.91
2018-01-30T00:33:18.342Z,1004.84
2018-01-30T00:34:28.131Z,1004.9
2018-01-30T00:35:38.232Z,1004.85
2018-01-30T00:36:48.273Z,1004.8
2018-01-30T00:37:58.073Z,1004.79
2018-01-30T00:39:08.130Z,1004.76
2018-01-30T00:40:18.167Z,1004.89
2018-01-30T00:41:28.267Z,1004.89
2018-01-30T00:42:38.041Z,1004.87
2018-01-30T00:43:48.119Z,1004.8
2018-01-30T00:44:58.176Z,1004.66
2018-01-30T00:46:07.722Z,1004.73
2018-01-30T00:47:17.773Z,1004.68
2018-01-30T00:48:27.818Z,1004.84
2018-01-30T00:49:37.867Z,1004.66
2018-01-30T00:50:47.659Z,1004.61
2018-01-30T00:51:57.729Z,1004.62
2018-01-30T00:53:07.834Z,1004.71
2018-01-30T00:54:17.884Z,1004.69
2018-01-30T00:55:27.673Z,1004.65
2018-01-30T00:56:37.721Z,1004.72
2018-01-30T00:57:47.256Z,1004.62
2018-01-30T00:58:57.085Z,1004.69
2018-01-30T01:00:06.867Z,1004.69
2018-01-30T01:01:16.663Z,1004.62
2018-01-30T01:02:26.731Z,1004.72
2018-01-30T01:03:36.530Z,1004.65
2018-01-30T01:04:46.574Z,1004.79
2018-01-30T01:05:56.612Z,1004.76
2018-01-30T01:07:06.668Z,1004.7
2018-01-30T01:08:16.725Z,1004.7
2018-01-30T01:09:26.767Z,1004.71
2018-01-30T01:10:36.573Z,1004.69
2018-01-30T01:11:46.625Z,1004.68
2018-01-30T01:12:56.673Z,1004.64
2018-01-30T01:14:06.464Z,1004.61
2018-01-30T01:15:16.251Z,1004.66
2018-01-30T01:16:26.094Z,1004.63
2018-01-30T01:17:36.324Z,1004.58
2018-01-30T01:18:46.371Z,1004.61
2018-01-30T01:19:56.431Z,1004.6
2018-01-30T01:21:06.480Z,1004.67
2018-01-30T01:22:16.518Z,1004.58
2018-01-30T01:23:26.307Z,1004.51
2018-01-30T01:24:36.411Z,1004.56
2018-01-30T01:25:46.470Z,1004.41
2018-01-30T01:26:56.538Z,1004.54
2018-01-30T01:28:06.655Z,1004.46
2018-01-30T01:29:16.181Z,1004.34
2018-01-30T01:30:26.249Z,1004.38
2018-01-30T01:31:36.305Z,1004.57
2018-01-30T01:32:46.336Z,1004.35
2018-01-30T01:33:56.429Z,1004.44
2018-01-30T01:35:06.482Z,1004.33
2018-01-30T01:36:16.271Z,1004.36
2018-01-30T01:37:26.323Z,1004.38
2018-01-30T01:38:36.386Z,1004.3
2018-01-30T01:39:46.193Z,1004.45
2018-01-30T01:40:56.248Z,1004.5
2018-01-30T01:42:06.295Z,1004.31
2018-01-30T01:43:16.086Z,1004.08
2018-01-30T01:44:26.127Z,1004.21
2018-01-30T01:45:36.185Z,1004.23
2018-01-30T01:46:46.233Z,1004.2
2018-01-30T01:47:56.281Z,1004.11
2018-01-30T01:49:06.321Z,1004.07
2018-01-30T01:50:16.384Z,1004.12
2018-01-30T01:51:26.224Z,1003.96
2018-01-30T01:52:36.325Z,1004.11
2018-01-30T01:53:46.364Z,1004.11
2018-01-30T01:54:56.135Z,1004.05
2018-01-30T01:56:05.941Z,1004.04
2018-01-30T01:57:15.978Z,1003.89
2018-01-30T01:58:26.520Z,1003.99
2018-01-30T01:59:36.321Z,1003.88
2018-01-30T02:00:46.117Z,1003.9
2018-01-30T02:01:56.185Z,1004.04
2018-01-30T02:03:06.032Z,1003.89
2018-01-30T02:04:16.081Z,1003.83
2018-01-30T02:05:26.111Z,1003.94
2018-01-30T02:06:36.237Z,1003.89
2018-01-30T02:07:46.040Z,1003.94
2018-01-30T02:08:56.095Z,1004.04
2018-01-30T02:10:06.148Z,1004
2018-01-30T02:11:16.194Z,1004.18
2018-01-30T02:12:25.719Z,1004.19
2018-01-30T02:13:35.761Z,1004.14
2018-01-30T02:14:45.869Z,1004.14
2018-01-30T02:15:55.648Z,1004.13
2018-01-30T02:17:07.189Z,1004.07
2018-01-30T02:18:17.240Z,1004.05
2018-01-30T02:19:27.285Z,1004.06
2018-01-30T02:20:37.334Z,1003.96
2018-01-30T02:21:48.263Z,1004.07
2018-01-30T02:22:58.324Z,1004.02
2018-01-30T02:24:08.383Z,1003.84
2018-01-30T02:25:18.441Z,1003.95
2018-01-30T02:26:28.246Z,1003.97
2018-01-30T02:27:38.035Z,1003.95
2018-01-30T02:28:48.071Z,1003.91
2018-01-30T02:29:57.866Z,1003.99
2018-01-30T02:31:07.915Z,1004.06
2018-01-30T02:32:18.016Z,1004.15
2018-01-30T02:33:28.069Z,1004.15
2018-01-30T02:34:37.907Z,1004.2
2018-01-30T02:35:47.703Z,1004.15
2018-01-30T02:36:57.591Z,1003.99
2018-01-30T02:38:07.636Z,1003.94
2018-01-30T02:39:17.421Z,1004.03
2018-01-30T02:40:27.502Z,1004.03
2018-01-30T02:41:37.560Z,1003.9
2018-01-30T02:42:47.606Z,1003.94
2018-01-30T02:43:57.669Z,1004.02
2018-01-30T02:45:07.721Z,1004.1
2018-01-30T02:46:17.781Z,1004.03
2018-01-30T02:47:27.838Z,1003.88
2018-01-30T02:48:37.903Z,1004.01
2018-01-30T02:49:47.997Z,1004.04
2018-01-30T02:50:57.542Z,1003.98
2018-01-30T02:52:07.342Z,1003.98
2018-01-30T02:53:17.387Z,1003.91
2018-01-30T02:54:27.189Z,1003.98
2018-01-30T02:55:37.065Z,1004.02
2018-01-30T02:56:46.868Z,1003.82
2018-01-30T02:57:56.930Z,1003.85
2018-01-30T02:59:06.716Z,1003.85
2018-01-30T03:00:16.255Z,1003.81
2018-01-30T03:01:25.576Z,1003.81
2018-01-30T03:02:35.372Z,1003.8
2018-01-30T03:34:31.933Z,1003.62
2018-01-30T03:35:41.722Z,1003.74
2018-01-30T03:36:51.748Z,1003.63
2018-01-30T03:38:01.276Z,1003.64
2018-01-30T03:39:11.302Z,1003.75
2018-01-30T03:40:21.366Z,1003.66
2018-01-30T03:41:31.406Z,1003.69
2018-01-30T03:42:41.440Z,1003.72
2018-01-30T03:43:51.217Z,1003.6
2018-01-30T03:45:00.998Z,1003.7
2018-01-30T03:46:11.115Z,1003.78
2018-01-30T03:47:21.178Z,1003.72
2018-01-30T03:48:31.227Z,1003.76
2018-01-30T03:49:41.012Z,1003.81
2018-01-30T03:50:51.055Z,1003.81
2018-01-30T03:52:01.157Z,1003.85
2018-01-30T03:53:11.201Z,1003.76
2018-01-30T03:54:21.258Z,1003.87
2018-01-30T03:55:31.305Z,1003.78
2018-01-30T03:56:41.366Z,1003.85
2018-01-30T03:57:51.153Z,1003.85
2018-01-30T03:59:01.222Z,1003.92
2018-01-30T04:00:11.009Z,1003.93
2018-01-30T04:01:21.064Z,1003.81
2018-01-30T04:02:31.100Z,1003.81
2018-01-30T04:03:41.151Z,1003.9
2018-01-30T04:04:50.950Z,1003.84
2018-01-30T04:06:00.467Z,1003.86
2018-01-30T04:07:10.507Z,1003.84
2018-01-30T04:08:20.549Z,1003.97
2018-01-30T04:09:30.340Z,1003.92
2018-01-30T04:10:40.384Z,1003.98
2018-01-30T04:11:50.179Z,1004.01
2018-01-30T04:13:00.227Z,1003.98
2018-01-30T04:14:10.303Z,1003.9
2018-01-30T04:15:20.336Z,1003.98
2018-01-30T04:16:30.384Z,1003.89
2018-01-30T04:17:40.170Z,1004.01
2018-01-30T04:18:50.249Z,1003.89
2018-01-30T04:19:59.782Z,1003.9
2018-01-30T04:21:09.830Z,1003.97
2018-01-30T04:22:19.897Z,1003.88
2018-01-30T04:23:30.464Z,1004.01
2018-01-30T04:24:40.519Z,1003.87
2018-01-30T04:25:50.367Z,1003.88
2018-01-30T04:27:00.428Z,1003.83
2018-01-30T04:28:10.477Z,1003.85
2018-01-30T04:29:20.537Z,1003.82
2018-01-30T04:30:30.342Z,1003.89
2018-01-30T04:31:40.396Z,1003.85
2018-01-30T04:32:50.460Z,1003.9
2018-01-30T04:34:00.539Z,1003.99
2018-01-30T04:35:10.576Z,1003.96
2018-01-30T04:36:20.629Z,1003.94
2018-01-30T04:37:30.687Z,1003.95
2018-01-30T04:38:40.804Z,1003.99
2018-01-30T04:39:50.843Z,1003.97
2018-01-30T04:41:00.628Z,1004.07
2018-01-30T04:42:10.678Z,1004.04
2018-01-30T04:43:20.462Z,1003.96
2018-01-30T04:44:30.308Z,1004.14
2018-01-30T04:45:40.349Z,1004
2018-01-30T04:46:50.398Z,1004.01
2018-01-30T04:48:00.443Z,1003.92
2018-01-30T04:49:10.485Z,1004.06
2018-01-30T04:50:20.463Z,1004
2018-01-30T04:51:30.249Z,1004.11
2018-01-30T04:52:40.300Z,1004.06
2018-01-30T04:53:50.348Z,1004.14
2018-01-30T04:55:00.136Z,1004.11
2018-01-30T04:56:09.975Z,1004.18
2018-01-30T04:57:20.023Z,1004.23
2018-01-30T04:58:30.081Z,1004.28
2018-01-30T04:59:40.143Z,1004.21
2018-01-30T05:00:50.210Z,1004.37
2018-01-30T05:02:00.100Z,1004.34
2018-01-30T05:03:10.117Z,1004.38
2018-01-30T05:04:20.160Z,1004.33
2018-01-30T05:05:30.197Z,1004.45
2018-01-30T05:06:40.233Z,1004.5
2018-01-30T05:07:50.269Z,1004.59
2018-01-30T05:09:00.378Z,1004.65
2018-01-30T05:10:10.439Z,1004.65
2018-01-30T05:11:20.486Z,1004.77
2018-01-30T05:12:30.553Z,1004.67
2018-01-30T05:13:40.688Z,1004.72
2018-01-30T05:14:50.743Z,1004.77
2018-01-30T05:16:00.540Z,1004.81
2018-01-30T05:17:10.593Z,1004.89
2018-01-30T05:18:20.374Z,1004.89
2018-01-30T05:19:30.226Z,1004.79
2018-01-30T05:20:40.273Z,1004.93
2018-01-30T05:21:49.820Z,1005.02
2018-01-30T05:22:59.864Z,1004.94
2018-01-30T05:24:09.924Z,1004.92
2018-01-30T05:25:20.059Z,1005.11
2018-01-30T05:26:30.111Z,1004.95
2018-01-30T05:27:40.145Z,1005.01
2018-01-30T05:28:50.190Z,1005.04
2018-01-30T05:29:59.992Z,1005.12
2018-01-30T05:31:10.049Z,1005.04
2018-01-30T05:32:19.850Z,1005.1
2018-01-30T05:33:29.623Z,1005.15
2018-01-30T05:34:39.673Z,1005.1
2018-01-30T05:35:49.711Z,1005.18
2018-01-30T05:36:59.807Z,1005.22
2018-01-30T05:38:09.866Z,1005.2
2018-01-30T05:39:19.916Z,1005.3
2018-01-30T05:40:29.955Z,1005.41
2018-01-30T05:41:39.995Z,1005.39
2018-01-30T05:42:50.154Z,1005.53
2018-01-30T05:43:59.928Z,1005.48
2018-01-30T05:45:09.712Z,1005.59
2018-01-30T05:46:19.763Z,1005.61
2018-01-30T05:47:29.298Z,1005.71
2018-01-30T05:48:39.400Z,1005.77
2018-01-30T05:49:49.446Z,1005.99
2018-01-30T05:50:59.224Z,1006.01
2018-01-30T05:52:09.016Z,1006.35
2018-01-30T05:53:18.561Z,1006.47
2018-01-30T05:54:28.616Z,1006.36
2018-01-30T05:55:38.409Z,1006.57
2018-01-30T05:56:48.474Z,1006.55
2018-01-30T05:57:58.534Z,1006.57
2018-01-30T05:59:08.333Z,1006.57
2018-01-30T06:00:18.467Z,1006.55
2018-01-30T06:01:28.509Z,1006.59
2018-01-30T06:02:38.034Z,1006.61
2018-01-30T06:03:48.094Z,1006.65
2018-01-30T06:04:57.631Z,1006.68
2018-01-30T06:06:07.691Z,1006.61
2018-01-30T06:07:17.557Z,1006.82
2018-01-30T06:08:27.592Z,1006.65
2018-01-30T06:09:37.658Z,1006.76
2018-01-30T06:10:47.187Z,1006.76
2018-01-30T06:11:56.727Z,1006.95
2018-01-30T06:13:06.527Z,1006.88
2018-01-30T06:14:16.585Z,1006.83
2018-01-30T06:15:26.647Z,1006.9
2018-01-30T06:16:36.687Z,1006.9
2018-01-30T06:17:46.475Z,1007.09
2018-01-30T06:18:56.017Z,1007.07
2018-01-30T06:20:06.076Z,1007.05
2018-01-30T06:21:16.119Z,1007.19
2018-01-30T06:22:26.166Z,1007.21
2018-01-30T06:23:35.957Z,1007.13
2018-01-30T06:24:45.748Z,1007.2
2018-01-30T06:25:55.535Z,1007.32
2018-01-30T06:27:05.570Z,1007.3
2018-01-30T06:28:15.624Z,1007.31
2018-01-30T06:29:25.734Z,1007.32
2018-01-30T06:30:35.773Z,1007.3
2018-01-30T06:31:45.876Z,1007.38
2018-01-30T06:32:55.672Z,1007.41
2018-01-30T06:34:05.462Z,1007.37
2018-01-30T06:35:15.514Z,1007.42
2018-01-30T06:36:25.563Z,1007.4
2018-01-30T06:37:35.627Z,1007.45
2018-01-30T06:38:45.423Z,1007.45
2018-01-30T06:39:55.211Z,1007.56
2018-01-30T06:41:05.353Z,1007.55
2018-01-30T06:42:15.146Z,1007.59
2018-01-30T06:43:24.924Z,1007.56
2018-01-30T06:44:34.960Z,1007.58
2018-01-30T06:45:44.765Z,1007.59
2018-01-30T06:46:54.818Z,1007.54
2018-01-30T06:48:04.865Z,1007.68
2018-01-30T06:49:14.658Z,1007.65
2018-01-30T06:50:24.738Z,1007.65
2018-01-30T06:51:34.770Z,1007.68
2018-01-30T06:52:44.300Z,1007.74
2018-01-30T06:53:54.397Z,1007.8
2018-01-30T06:55:04.201Z,1007.8
2018-01-30T06:56:14.236Z,1007.83
2018-01-30T06:57:23.824Z,1007.91
2018-01-30T06:58:33.895Z,1007.94
2018-01-30T06:59:43.513Z,1007.94
2018-01-30T07:00:53.574Z,1007.98
2018-01-30T07:02:03.364Z,1008.04
2018-01-30T07:03:13.412Z,1008.05
2018-01-30T07:04:23.466Z,1008
2018-01-30T07:05:33.563Z,1007.99
2018-01-30T07:06:43.611Z,1007.98
2018-01-30T07:07:53.405Z,1008.02
2018-01-30T07:09:03.456Z,1008.08
2018-01-30T07:10:13.240Z,1008.05
2018-01-30T07:11:23.048Z,1008.08
2018-01-30T07:12:32.841Z,1008.06
2018-01-30T07:13:42.613Z,1008.1
2018-01-30T07:14:52.673Z,1008.1
2018-01-30T07:16:02.726Z,1008.08
2018-01-30T07:17:12.817Z,1008.09
2018-01-30T07:18:22.861Z,1008.1
2018-01-30T07:19:32.647Z,1008.15
2018-01-30T07:20:42.708Z,1008.14
2018-01-30T07:21:52.763Z,1008.2
2018-01-30T07:23:02.814Z,1008.22
2018-01-30T07:24:12.623Z,1008.26
2018-01-30T07:25:22.666Z,1008.26
2018-01-30T07:26:32.739Z,1008.33
2018-01-30T07:27:42.514Z,1008.28
2018-01-30T07:28:52.573Z,1008.3
2018-01-30T07:30:02.621Z,1008.33
2018-01-30T07:31:12.693Z,1008.36
2018-01-30T07:32:22.762Z,1008.32
2018-01-30T07:33:32.552Z,1008.36
2018-01-30T07:34:42.869Z,1008.39
2018-01-30T07:35:52.915Z,1008.38
2018-01-30T07:37:02.973Z,1008.35
2018-01-30T07:38:13.377Z,1008.4
2018-01-30T07:39:23.430Z,1008.41
2018-01-30T07:40:33.548Z,1008.39
2018-01-30T07:41:43.604Z,1008.44
2018-01-30T07:42:53.647Z,1008.39
2018-01-30T07:44:03.438Z,1008.47
2018-01-30T07:45:12.984Z,1008.5
2018-01-30T07:46:23.042Z,1008.47
2018-01-30T07:47:33.086Z,1008.54
2018-01-30T07:48:43.194Z,1008.51
2018-01-30T07:49:52.982Z,1008.53
2018-01-30T07:51:03.044Z,1008.47
2018-01-30T07:52:13.136Z,1008.46
2018-01-30T07:53:23.194Z,1008.38
2018-01-30T07:54:33.236Z,1008.36
2018-01-30T07:55:43.284Z,1008.43
2018-01-30T07:56:53.348Z,1008.39
2018-01-30T07:58:03.445Z,1008.4
2018-01-30T07:59:13.262Z,1008.44
2018-01-30T08:00:23.315Z,1008.42
2018-01-30T08:01:33.402Z,1008.43
2018-01-30T08:02:43.242Z,1008.5
2018-01-30T08:03:53.336Z,1008.46
2018-01-30T08:05:03.464Z,1008.46
2018-01-30T08:06:13.310Z,1008.61
2018-01-30T08:07:23.365Z,1008.53
2018-01-30T08:08:33.449Z,1008.58
2018-01-30T08:09:43.518Z,1008.58
2018-01-30T08:10:53.322Z,1008.59
2018-01-30T08:12:03.388Z,1008.61
2018-01-30T08:13:13.444Z,1008.67
2018-01-30T08:14:23.525Z,1008.74
2018-01-30T08:15:33.601Z,1008.74
2018-01-30T08:16:43.769Z,1008.76
2018-01-30T08:17:53.834Z,1008.81
2018-01-30T08:19:03.967Z,1008.77
2018-01-30T08:20:13.778Z,1008.76
2018-01-30T08:21:23.914Z,1008.94
2018-01-30T08:22:33.972Z,1008.84
2018-01-30T08:23:43.774Z,1008.93
2018-01-30T08:24:53.584Z,1008.94
2018-01-30T08:26:03.373Z,1008.9
2018-01-30T08:27:13.416Z,1008.94
2018-01-30T08:28:23.490Z,1008.93
2018-01-30T08:29:33.576Z,1008.96
2018-01-30T08:30:43.665Z,1009.01
2018-01-30T08:31:53.756Z,1009.01
2018-01-30T08:33:03.841Z,1009.04
2018-01-30T08:34:13.644Z,1009
2018-01-30T08:35:23.461Z,1009.08
2018-01-30T08:36:33.537Z,1009.17
2018-01-30T08:37:43.601Z,1009.18
2018-01-30T08:38:53.397Z,1009.17
2018-01-30T08:40:03.190Z,1009.14
2018-01-30T08:41:13.249Z,1009.13
2018-01-30T08:42:23.051Z,1009.09
2018-01-30T08:43:33.173Z,1009.12
2018-01-30T08:44:43.223Z,1009.23
2018-01-30T08:45:53.285Z,1009.21
2018-01-30T08:47:03.350Z,1009.21
2018-01-30T08:48:13.414Z,1009.1
2018-01-30T08:49:23.476Z,1009.13
2018-01-30T08:50:33.299Z,1009.15
2018-01-30T08:51:43.423Z,1009.14
2018-01-30T08:52:53.484Z,1009.14
2018-01-30T08:54:03.563Z,1009.16
2018-01-30T08:55:13.628Z,1009.09
2018-01-30T08:56:23.682Z,1009.11
2018-01-30T08:57:33.744Z,1009.03
2018-01-30T08:58:43.553Z,1009.06
2018-01-30T08:59:53.607Z,1009.15
2018-01-30T09:01:03.182Z,1009.21
2018-01-30T09:02:13.238Z,1009.2
2018-01-30T09:03:23.287Z,1009.17
2018-01-30T09:04:33.409Z,1009.19
2018-01-30T09:05:43.465Z,1009.19
2018-01-30T09:06:53.587Z,1009.22
2018-01-30T09:08:03.645Z,1009.15
2018-01-30T09:09:13.713Z,1009.24
2018-01-30T09:10:23.845Z,1009.2
2018-01-30T09:11:33.919Z,1009.24
2018-01-30T09:12:43.992Z,1009.25
2018-01-30T09:13:54.036Z,1009.27
2018-01-30T09:15:04.097Z,1009.4
2018-01-30T09:16:14.225Z,1009.34
2018-01-30T09:17:24.269Z,1009.34
2018-01-30T09:18:34.459Z,1009.38
2018-01-30T09:19:44.535Z,1009.32
2018-01-30T09:20:54.616Z,1009.32
2018-01-30T09:22:04.689Z,1009.37
2018-01-30T09:23:14.748Z,1009.29
2018-01-30T09:24:24.603Z,1009.33
2018-01-30T09:25:34.389Z,1009.36
2018-01-30T09:26:44.454Z,1009.39
2018-01-30T09:27:54.504Z,1009.32
2018-01-30T09:29:04.571Z,1009.36
2018-01-30T09:30:14.709Z,1009.37
2018-01-30T09:31:24.769Z,1009.36
2018-01-30T09:32:34.817Z,1009.41
2018-01-30T09:33:44.873Z,1009.44
2018-01-30T09:34:54.690Z,1009.48
2018-01-30T09:36:04.237Z,1009.46
2018-01-30T09:37:14.405Z,1009.46
2018-01-30T09:38:24.452Z,1009.42
2018-01-30T09:39:34.521Z,1009.51
2018-01-30T09:40:44.589Z,1009.51
2018-01-30T09:41:54.450Z,1009.61
2018-01-30T09:43:04.508Z,1009.59
2018-01-30T09:44:14.372Z,1009.56
2018-01-30T09:45:24.157Z,1009.64
2018-01-30T09:46:33.973Z,1009.65
2018-01-30T09:47:44.098Z,1009.65
2018-01-30T09:48:54.171Z,1009.65
2018-01-30T09:50:04.225Z,1009.65
2018-01-30T09:51:14.303Z,1009.59
2018-01-30T09:52:23.837Z,1009.55
2018-01-30T09:53:33.887Z,1009.63
2018-01-30T09:54:43.968Z,1009.64
2018-01-30T09:55:54.028Z,1009.67
2018-01-30T09:57:03.832Z,1009.75
2018-01-30T09:58:13.629Z,1009.71
2018-01-30T09:59:23.738Z,1009.72
2018-01-30T10:00:33.522Z,1009.79
2018-01-30T10:01:43.617Z,1009.75
2018-01-30T10:02:53.680Z,1009.76
2018-01-30T10:04:03.747Z,1009.8
2018-01-30T10:05:13.821Z,1009.87
2018-01-30T10:06:23.631Z,1009.88
2018-01-30T10:07:33.704Z,1009.78
2018-01-30T10:08:43.782Z,1009.86
2018-01-30T10:09:53.857Z,1009.84
2018-01-30T10:11:03.915Z,1009.91
2018-01-30T10:12:13.722Z,1009.98
2018-01-30T10:13:23.569Z,1009.87
2018-01-30T10:14:33.650Z,1009.91
2018-01-30T10:15:43.712Z,1009.93
2018-01-30T10:16:53.770Z,1009.87
2018-01-30T10:18:03.042Z,1009.89
2018-01-30T10:19:13.160Z,1009.9
2018-01-30T10:20:23.250Z,1009.87
2018-01-30T10:21:33.319Z,1009.89
2018-01-30T10:22:45.322Z,1009.97
2018-01-30T10:23:55.393Z,1010.02
2018-01-30T10:25:05.436Z,1010.01
2018-01-30T10:26:16.601Z,1010
2018-01-30T10:27:26.658Z,1010
2018-01-30T10:28:36.492Z,1010.03
2018-01-30T10:29:46.552Z,1009.99
2018-01-30T10:30:56.461Z,1009.97
2018-01-30T10:32:06.595Z,1009.91
2018-01-30T10:33:16.670Z,1009.96
2018-01-30T10:34:26.747Z,1009.97
2018-01-30T10:35:36.546Z,1009.95
2018-01-30T10:36:46.145Z,1009.98
2018-01-30T10:37:56.232Z,1009.95
2018-01-30T10:39:06.332Z,1009.96
2018-01-30T10:40:16.144Z,1009.99
2018-01-30T10:41:26.289Z,1009.98
2018-01-30T10:42:37.580Z,1009.99
2018-01-30T10:43:48.826Z,1009.89
2018-01-30T10:44:58.891Z,1009.92
2018-01-30T10:46:08.954Z,1009.82
2018-01-30T10:47:19.011Z,1009.81
2018-01-30T10:48:29.114Z,1009.88
2018-01-30T10:49:39.188Z,1009.77
2018-01-30T10:50:48.995Z,1009.86
2018-01-30T10:51:59.067Z,1009.89
2018-01-30T10:53:08.878Z,1009.89
2018-01-30T10:54:18.726Z,1009.87
2018-01-30T10:55:28.805Z,1009.82
2018-01-30T10:56:40.244Z,1009.83
2018-01-30T10:57:50.050Z,1009.79
2018-01-30T10:59:00.125Z,1009.81
2018-01-30T11:00:10.201Z,1009.79
2018-01-30T11:01:20.288Z,1009.81
2018-01-30T11:02:30.373Z,1009.77
2018-01-30T11:03:40.075Z,1009.71
2018-01-30T11:04:50.171Z,1009.7
2018-01-30T11:06:00.274Z,1009.72
2018-01-30T11:07:10.341Z,1009.68
2018-01-30T11:08:20.138Z,1009.67
2018-01-30T11:09:30.491Z,1009.73
2018-01-30T11:10:40.562Z,1009.68
2018-01-30T11:11:50.666Z,1009.67
2018-01-30T11:13:00.726Z,1009.69
2018-01-30T11:14:10.794Z,1009.62
2018-01-30T11:15:20.850Z,1009.55
2018-01-30T11:16:30.920Z,1009.56
2018-01-30T11:17:41.028Z,1009.66
2018-01-30T11:18:50.849Z,1009.5
2018-01-30T11:20:00.927Z,1009.7
2018-01-30T11:21:10.503Z,1009.57
2018-01-30T11:22:20.298Z,1009.54
2018-01-30T11:23:30.420Z,1009.69
2018-01-30T11:24:40.488Z,1009.58
2018-01-30T11:25:51.267Z,1009.57
2018-01-30T11:27:01.079Z,1009.58
2018-01-30T11:28:11.146Z,1009.55
2018-01-30T11:29:21.220Z,1009.52
2018-01-30T11:30:31.032Z,1009.49
2018-01-30T11:31:41.087Z,1009.56
2018-01-30T11:32:51.135Z,1009.65
2018-01-30T11:34:01.253Z,1009.51
2018-01-30T11:35:11.326Z,1009.55
2018-01-30T11:36:21.383Z,1009.44
2018-01-30T11:37:31.444Z,1009.47
2018-01-30T11:38:41.244Z,1009.47
2018-01-30T11:39:51.065Z,1009.48
2018-01-30T11:41:00.922Z,1009.4
2018-01-30T11:42:11.010Z,1009.47
2018-01-30T11:43:22.079Z,1009.45
2018-01-30T11:44:32.153Z,1009.43
2018-01-30T11:45:41.957Z,1009.35
2018-01-30T11:46:52.010Z,1009.47
2018-01-30T11:48:02.052Z,1009.32
2018-01-30T11:49:12.148Z,1009.33
2018-01-30T11:50:22.229Z,1009.34
2018-01-30T11:51:32.024Z,1009.41
2018-01-30T11:52:41.826Z,1009.28
2018-01-30T11:53:51.903Z,1009.35
2018-01-30T11:55:01.970Z,1009.36
2018-01-30T11:56:12.049Z,1009.3
2018-01-30T11:57:22.115Z,1009.32
2018-01-30T11:58:32.263Z,1009.28
2018-01-30T11:59:42.077Z,1009.28
2018-01-30T12:00:52.148Z,1009.26
2018-01-30T12:02:02.349Z,1009.22
2018-01-30T12:03:12.441Z,1009.3
2018-01-30T12:04:22.557Z,1009.14
2018-01-30T12:05:32.141Z,1009.16
2018-01-30T12:06:42.203Z,1009.07
2018-01-30T12:07:52.257Z,1009.07
2018-01-30T12:09:02.344Z,1009.04
2018-01-30T12:10:12.404Z,1009
2018-01-30T12:11:22.212Z,1008.99
2018-01-30T12:12:32.285Z,1009.03
2018-01-30T12:13:41.809Z,1009
2018-01-30T12:14:51.866Z,1008.93
2018-01-30T12:16:01.968Z,1008.92
2018-01-30T12:17:12.056Z,1008.95
2018-01-30T12:18:21.858Z,1008.91
2018-01-30T12:19:31.901Z,1008.86
2018-01-30T12:20:41.967Z,1008.87
2018-01-30T12:21:51.808Z,1008.91
2018-01-30T12:23:01.897Z,1008.9
2018-01-30T12:24:11.949Z,1008.92
2018-01-30T12:25:21.751Z,1008.8
2018-01-30T12:26:31.841Z,1008.9
2018-01-30T12:27:41.974Z,1008.86
2018-01-30T12:28:52.052Z,1008.84
2018-01-30T12:30:02.127Z,1008.79
2018-01-30T12:31:12.181Z,1008.88
2018-01-30T12:32:22.279Z,1008.81
2018-01-30T12:33:32.394Z,1008.89
2018-01-30T12:34:42.218Z,1008.78
2018-01-30T12:35:52.008Z,1008.8
2018-01-30T12:37:01.826Z,1008.76
2018-01-30T12:38:11.891Z,1008.82
2018-01-30T12:39:21.967Z,1008.8
2018-01-30T12:40:31.774Z,1008.77
2018-01-30T12:41:41.417Z,1008.73
2018-01-30T12:42:51.522Z,1008.74
2018-01-30T12:44:01.335Z,1008.68
2018-01-30T12:45:11.509Z,1008.72
2018-01-30T12:46:21.586Z,1008.73
2018-01-30T12:47:31.130Z,1008.69
2018-01-30T12:48:40.927Z,1008.69
2018-01-30T12:49:51.143Z,1008.64
2018-01-30T12:51:01.263Z,1008.62
2018-01-30T12:52:11.333Z,1008.69
2018-01-30T12:53:21.416Z,1008.63
2018-01-30T12:54:30.948Z,1008.68
2018-01-30T12:55:41.010Z,1008.65
2018-01-30T12:56:51.069Z,1008.61
2018-01-30T12:58:01.138Z,1008.71
2018-01-30T12:59:10.668Z,1008.72
2018-01-30T13:00:20.745Z,1008.63
2018-01-30T13:01:30.809Z,1008.6
2018-01-30T13:02:40.873Z,1008.64
2018-01-30T13:03:50.943Z,1008.63
2018-01-30T13:05:00.995Z,1008.66
2018-01-30T13:06:11.075Z,1008.69
2018-01-30T13:07:21.147Z,1008.75
2018-01-30T13:08:30.997Z,1008.75
2018-01-30T13:09:42.208Z,1008.68
2018-01-30T13:10:51.749Z,1008.62
2018-01-30T13:12:01.825Z,1008.66
2018-01-30T13:13:11.636Z,1008.66
2018-01-30T13:14:21.762Z,1008.61
2018-01-30T13:15:31.604Z,1008.61
2018-01-30T13:16:41.692Z,1008.67
2018-01-30T13:17:51.763Z,1008.61
2018-01-30T13:19:01.826Z,1008.63
2018-01-30T13:20:11.967Z,1008.59
2018-01-30T13:21:22.039Z,1008.52
2018-01-30T13:22:32.130Z,1008.55
2018-01-30T13:23:42.202Z,1008.58
2018-01-30T13:24:51.993Z,1008.6
2018-01-30T13:26:02.131Z,1008.53
2018-01-30T13:27:11.690Z,1008.56
2018-01-30T13:28:21.536Z,1008.53
2018-01-30T13:29:31.615Z,1008.58
2018-01-30T13:30:41.674Z,1008.58
2018-01-30T13:31:51.741Z,1008.56
2018-01-30T13:33:01.800Z,1008.51
2018-01-30T13:34:11.584Z,1008.47
2018-01-30T13:35:21.634Z,1008.5
2018-01-30T13:36:30.921Z,1008.53
2018-01-30T13:37:40.763Z,1008.48
2018-01-30T13:38:50.855Z,1008.45
2018-01-30T13:40:00.917Z,1008.42
2018-01-30T13:41:10.968Z,1008.41
2018-01-30T13:42:20.777Z,1008.46
2018-01-30T13:43:30.836Z,1008.42
2018-01-30T13:44:40.934Z,1008.43
2018-01-30T13:45:50.988Z,1008.47
2018-01-30T13:47:01.055Z,1008.47
2018-01-30T13:48:11.122Z,1008.48
2018-01-30T13:49:21.283Z,1008.46
2018-01-30T13:50:31.333Z,1008.47
2018-01-30T13:51:41.384Z,1008.54
2018-01-30T13:52:51.439Z,1008.5
2018-01-30T13:54:01.485Z,1008.54
2018-01-30T13:55:11.349Z,1008.51
2018-01-30T13:56:20.655Z,1008.47
2018-01-30T13:57:30.793Z,1008.52
2018-01-30T13:58:40.590Z,1008.55
2018-01-30T13:59:50.660Z,1008.46
2018-01-30T14:01:00.723Z,1008.46
2018-01-30T14:02:11.827Z,1008.47
2018-01-30T14:03:21.868Z,1008.43
2018-01-30T14:04:31.725Z,1008.46
2018-01-30T14:05:41.800Z,1008.49
2018-01-30T14:06:51.872Z,1008.47
2018-01-30T14:08:01.952Z,1008.45
2018-01-30T14:09:12.010Z,1008.46
2018-01-30T14:10:22.084Z,1008.43
2018-01-30T14:11:32.173Z,1008.42
2018-01-30T14:12:42.011Z,1008.4
2018-01-30T14:13:51.858Z,1008.43
2018-01-30T14:15:01.916Z,1008.4
2018-01-30T14:16:11.973Z,1008.37
2018-01-30T14:17:22.090Z,1008.42
2018-01-30T14:18:32.178Z,1008.4
2018-01-30T14:19:42.265Z,1008.39
2018-01-30T14:20:52.299Z,1008.42
2018-01-30T14:22:02.387Z,1008.39
2018-01-30T14:23:12.452Z,1008.41
2018-01-30T14:24:22.540Z,1008.4
2018-01-30T14:25:32.587Z,1008.43
2018-01-30T14:26:42.142Z,1008.41
2018-01-30T14:27:52.183Z,1008.37
2018-01-30T14:29:02.264Z,1008.4
2018-01-30T14:30:12.056Z,1008.41
2018-01-30T14:31:22.124Z,1008.43
2018-01-30T14:32:31.919Z,1008.43
2018-01-30T14:33:42.028Z,1008.39
2018-01-30T14:34:51.909Z,1008.42
2018-01-30T14:36:01.725Z,1008.36
2018-01-30T14:37:11.526Z,1008.4
2018-01-30T14:38:21.324Z,1008.39
2018-01-30T14:39:31.467Z,1008.4
2018-01-30T14:40:41.534Z,1008.44